createdAt,value
2023-03-28T00:01:01.543Z,43.5
2023-03-28T00:06:53.180Z,43.4
2023-03-28T00:12:14.112Z,43.4
2023-03-28T00:17:50.615Z,43.4
2023-03-28T00:23:41.530Z,43.3
2023-03-28T00:29:01.464Z,43.3
2023-03-28T00:34:37.561Z,43.3
2023-03-28T00:40:29.625Z,43.2
2023-03-28T00:46:22.810Z,43.1
2023-03-28T00:52:14.639Z,43.1
2023-03-28T00:57:50.513Z,43.1
2023-03-28T01:03:26.949Z,43
2023-03-28T01:09:03.714Z,43
2023-03-28T01:14:40.255Z,42.9
2023-03-28T01:20:03.040Z,42.9
2023-03-28T01:25:35.983Z,42.9
2023-03-28T01:30:25.366Z,42.8
2023-03-28T01:36:01.852Z,42.8
2023-03-28T01:41:38.844Z,42.8
2023-03-28T01:47:15.592Z,42.7
2023-03-28T01:52:51.535Z,42.7
2023-03-28T01:58:34.941Z,42.6
2023-03-28T02:04:20.165Z,42.6
2023-03-28T02:10:02.964Z,42.6
2023-03-28T02:15:54.315Z,42.5
2023-03-28T02:21:45.703Z,42.5
2023-03-28T02:27:22.176Z,42.4
2023-03-28T02:33:14.305Z,42.4
2023-03-28T02:39:05.588Z,42.3
2023-03-28T02:45:00.050Z,42.3
2023-03-28T02:51:00.719Z,42.3
2023-03-28T02:56:21.577Z,42.3
2023-03-28T03:02:13.312Z,42.2
2023-03-28T03:07:50.848Z,42.2
2023-03-28T03:13:27.024Z,42.1
2023-03-28T03:19:03.740Z,42.1
2023-03-28T03:24:39.961Z,42.1
2023-03-28T03:30:11.617Z,42
2023-03-28T03:35:50.946Z,42
2023-03-28T03:41:27.458Z,41.9
2023-03-28T03:47:04.448Z,41.9
2023-03-28T03:52:31.014Z,41.9
2023-03-28T03:58:07.284Z,41.8
2023-03-28T04:03:41.851Z,41.8
2023-03-28T04:09:17.412Z,41.8
2023-03-28T04:14:53.756Z,41.7
2023-03-28T04:20:41.637Z,41.6
2023-03-28T04:26:42.544Z,41.6
2023-03-28T04:32:19.425Z,41.6
2023-03-28T04:37:56.269Z,41.6
2023-03-28T04:42:53.828Z,41.5
2023-03-28T04:48:15.448Z,41.5
2023-03-28T04:54:07.495Z,41.4
2023-03-28T04:59:59.254Z,41.4
2023-03-28T05:05:36.940Z,41.3
2023-03-28T05:11:28.892Z,41.3
2023-03-28T05:17:24.417Z,41.3
2023-03-28T05:23:16.541Z,41.2
2023-03-28T05:29:10.298Z,41.2
2023-03-28T05:35:02.278Z,41.1
2023-03-28T05:40:54.330Z,41.1
2023-03-28T05:46:45.008Z,41.1
2023-03-28T05:52:36.467Z,41
2023-03-28T05:58:16.621Z,41
2023-03-28T06:04:09.890Z,40.9
2023-03-28T06:10:15.036Z,40.9
2023-03-28T06:16:06.276Z,40.9
2023-03-28T06:22:23.708Z,40.9
2023-03-28T06:27:59.760Z,40.8
2023-03-28T06:33:52.775Z,40.8
2023-03-28T06:39:44.996Z,40.8
2023-03-28T06:45:36.775Z,40.7
2023-03-28T06:51:13.556Z,40.7
2023-03-28T06:56:49.499Z,40.6
2023-03-28T07:02:41.422Z,40.6
2023-03-28T07:08:36.359Z,40.6
2023-03-28T07:14:12.237Z,40.6
2023-03-28T07:20:05.913Z,40.5
2023-03-28T07:26:05.855Z,40.4
2023-03-28T07:32:16.732Z,40.4
2023-03-28T07:38:39.855Z,40.4
2023-03-28T07:44:00.083Z,40.3
2023-03-28T07:49:36.412Z,40.3
2023-03-28T07:55:27.648Z,40.3
2023-03-28T08:01:30.572Z,40.2
2023-03-28T08:07:37.461Z,40.2
2023-03-28T08:13:28.754Z,40.1
2023-03-28T08:19:32.763Z,40.1
2023-03-28T08:25:34.623Z,40.1
2023-03-28T08:31:10.410Z,39.9
2023-03-28T08:37:02.957Z,39.8
2023-03-28T08:42:57.410Z,39.6
2023-03-28T08:48:33.693Z,39.6
2023-03-28T08:54:27.830Z,39.6
2023-03-28T09:00:20.986Z,39.5
2023-03-28T09:06:31.271Z,39.4
2023-03-28T09:12:23.753Z,39.4
2023-03-28T09:17:59.845Z,39.4
2023-03-28T09:24:14.125Z,39.4
2023-03-28T09:30:06.738Z,39.4
2023-03-28T09:35:44.527Z,39.3
2023-03-28T09:41:48.252Z,39.3
2023-03-28T09:47:50.655Z,39.3
2023-03-28T09:53:52.986Z,39.2
2023-03-28T09:59:38.514Z,39.2
2023-03-28T10:05:31.155Z,39.1
2023-03-28T10:11:22.508Z,39.1
2023-03-28T10:17:13.705Z,39.1
2023-03-28T10:23:04.863Z,39
2023-03-28T10:28:55.604Z,38.9
2023-03-28T10:34:32.209Z,38.9
2023-03-28T10:40:25.435Z,38.8
2023-03-28T10:46:17.309Z,38.8
2023-03-28T10:52:08.847Z,38.8
2023-03-28T10:58:01.158Z,38.7
2023-03-28T11:03:53.470Z,38.7
2023-03-28T11:10:03.952Z,38.7
2023-03-28T11:16:11.461Z,38.6
2023-03-28T11:21:47.842Z,38.6
2023-03-28T11:28:04.901Z,38.6
2023-03-28T11:34:11.941Z,38.5
2023-03-28T11:39:47.964Z,38.4
2023-03-28T11:45:55.051Z,38.8
2023-03-28T11:51:46.701Z,39.2
2023-03-28T11:57:39.436Z,39.8
2023-03-28T12:03:40.372Z,40.4
2023-03-28T12:09:49.440Z,41.1
2023-03-28T12:15:51.628Z,41.5
2023-03-28T12:21:45.951Z,41.9
2023-03-28T12:27:37.503Z,42.6
2023-03-28T12:33:15.006Z,43.1
2023-03-28T12:39:06.216Z,43.1
2023-03-28T12:44:43.265Z,43.1
2023-03-28T12:50:35.533Z,43.1
2023-03-28T12:56:27.282Z,43.1
2023-03-28T13:02:21.127Z,43.8
2023-03-28T13:08:13.402Z,43.9
2023-03-28T13:14:05.480Z,43.9
2023-03-28T13:19:58.161Z,43.9
2023-03-28T13:25:35.595Z,43.8
2023-03-28T13:31:11.840Z,43.8
2023-03-28T13:37:03.722Z,43.8
2023-03-28T13:42:43.355Z,43.8
2023-03-28T13:48:29.690Z,43.8
2023-03-28T13:54:19.320Z,43.8
2023-03-28T14:00:11.119Z,43.8
2023-03-28T14:06:04.768Z,43.8
2023-03-28T14:11:56.289Z,43.7
2023-03-28T14:17:50.469Z,43.7
2023-03-28T14:23:50.983Z,43.6
2023-03-28T14:29:30.544Z,43.6
2023-03-28T14:35:32.159Z,43.6
2023-03-28T14:41:23.516Z,43.6
2023-03-28T14:47:15.282Z,43.6
2023-03-28T14:53:09.294Z,43.5
2023-03-28T14:59:00.620Z,43.5
2023-03-28T15:04:53.488Z,43.4
2023-03-28T15:10:31.625Z,43.4
2023-03-28T15:16:25.295Z,43.4
2023-03-28T15:22:17.101Z,43.4
2023-03-28T15:28:08.813Z,43.4
2023-03-28T15:33:47.638Z,43.4
2023-03-28T15:39:41.071Z,43.3
2023-03-28T15:45:32.317Z,43.3
2023-03-28T15:51:25.722Z,43.3
2023-03-28T15:57:34.366Z,43.3
2023-03-28T16:03:26.189Z,43.3
2023-03-28T16:09:21.382Z,43.2
2023-03-28T16:15:12.558Z,43.2
2023-03-28T16:20:49.478Z,43.1
2023-03-28T16:26:25.554Z,43.1
2023-03-28T16:32:02.572Z,43.1
2023-03-28T16:37:54.937Z,43.1
2023-03-28T16:43:46.376Z,43
2023-03-28T16:49:37.887Z,43
2023-03-28T16:55:28.724Z,42.9
2023-03-28T17:00:50.159Z,42.9
2023-03-28T17:06:45.567Z,42.9
2023-03-28T17:12:37.490Z,43
2023-03-28T17:18:29.477Z,43.7
2023-03-28T17:23:50.149Z,44.4
2023-03-28T17:29:58.247Z,44.9
2023-03-28T17:35:52.179Z,45.6
2023-03-28T17:41:44.155Z,45.9
2023-03-28T17:47:37.014Z,46.1
2023-03-28T17:53:16.414Z,46.5
2023-03-28T17:59:08.919Z,46.8
2023-03-28T18:04:46.706Z,46.9
2023-03-28T18:10:41.210Z,47.1
2023-03-28T18:21:54.582Z,47.2
2023-03-28T18:27:48.290Z,47.2
2023-03-28T18:33:29.444Z,47.2
2023-03-28T18:39:08.496Z,47.2
2023-03-28T18:44:45.623Z,47.1
2023-03-28T18:50:22.849Z,47.1
2023-03-28T18:56:00.120Z,47.1
2023-03-28T19:01:37.749Z,47.1
2023-03-28T19:07:16.782Z,47.1
2023-03-28T19:12:38.903Z,47.7
2023-03-28T19:18:18.714Z,49.2
2023-03-28T19:23:56.262Z,50.7
2023-03-28T19:29:35.005Z,52.3
2023-03-28T19:35:28.340Z,53.9
2023-03-28T19:41:07.780Z,55.6
2023-03-28T19:46:49.752Z,57
2023-03-28T19:52:42.356Z,57.2
2023-03-28T19:58:35.860Z,57.1
2023-03-28T20:04:12.662Z,57.6
2023-03-28T20:21:06.354Z,58.5
2023-03-28T20:26:43.021Z,58.5
2023-03-28T20:32:34.949Z,58.4
2023-03-28T20:38:26.671Z,58.4
2023-03-28T20:44:04.640Z,58.4
2023-03-28T20:49:56.941Z,58.3
2023-03-28T20:55:52.205Z,58.2
2023-03-28T21:01:44.719Z,58.1
2023-03-28T21:07:36.285Z,58.1
2023-03-28T21:13:27.416Z,58
2023-03-28T21:19:03.828Z,58
2023-03-28T21:24:55.078Z,57.9
2023-03-28T21:30:15.649Z,57.9
2023-03-28T21:35:38.086Z,57.8
2023-03-28T21:41:14.242Z,57.8
2023-03-28T21:51:55.759Z,57.7
2023-03-28T21:57:47.353Z,57.6
2023-03-28T22:03:25.879Z,57.6
2023-03-28T22:08:55.635Z,57.5
2023-03-28T22:14:01.682Z,57.5
2023-03-28T22:19:22.599Z,57.4
2023-03-28T22:24:57.872Z,57.4
2023-03-28T22:30:02.962Z,57.4
2023-03-28T22:35:39.186Z,57.3
2023-03-28T22:41:14.384Z,57.3
2023-03-28T22:46:35.620Z,57.3
2023-03-28T22:52:12.789Z,57.2
2023-03-28T22:57:49.299Z,57.1
2023-03-28T23:03:25.766Z,57.1
2023-03-28T23:09:17.712Z,57.1
2023-03-28T23:14:53.519Z,57
2023-03-28T23:20:46.191Z,56.9
2023-03-28T23:26:22.646Z,56.9
2023-03-28T23:32:16.261Z,56.9
2023-03-28T23:38:07.930Z,56.8
2023-03-28T23:43:44.293Z,56.8
2023-03-28T23:49:20.359Z,56.7
2023-03-28T23:54:41.312Z,56.6
